This is the latest recevied weather packets stored in our database for station/object DG7AA-13. If no packets are shown the sender has not sent any weather packets the latest 10 day(s).
| Time | Temp. | Humidity | Pressure | Rain* | Wind** | Luminosity | Snow |
|---|---|---|---|---|---|---|---|
| 1777445734 | 7.78° C | 61% | - | 0 mm | - | - | - |
| 1777445127 | 7.78° C | 61% | - | 0 mm | - | - | - |
| 1777444538 | 7.22° C | 62% | - | 0 mm | - | - | - |
| 1777443926 | 7.22° C | 64% | - | 0 mm | - | - | - |
| 1777443331 | 6.67° C | 66% | - | 0 mm | - | - | - |
| 1777442722 | 6.11° C | 70% | - | 0 mm | - | - | - |
| 1777442126 | 5.56° C | 73% | - | 0 mm | - | - | - |
| 1777441522 | 5° C | 73% | - | 0 mm | - | - | - |
| 1777440931 | 3.89° C | 76% | - | 0 mm | - | - | - |
| 1777440323 | 2.78° C | 83% | - | 0 mm | - | - | - |
| 1777439726 | 2.22° C | 87% | - | 0 mm | - | - | - |
| 1777439126 | 1.67° C | 88% | - | 0 mm | - | - | - |
| 1777438531 | 1.11° C | 88% | - | 0 mm | - | - | - |
| 1777437926 | 0.56° C | 88% | - | 0 mm | - | - | - |
| 1777437331 | 0.56° C | 87% | - | 0 mm | - | - | - |
| 1777436723 | 0.56° C | 86% | - | 0 mm | - | - | - |
| 1777436134 | 0.56° C | 86% | - | 0 mm | - | - | - |
| 1777435522 | 1.11° C | 85% | - | 0 mm | - | - | - |
| 1777434933 | 1.11° C | 84% | - | 0 mm | - | - | - |
| 1777434325 | 1.67° C | 82% | - | 0 mm | - | - | - |
| 1777433723 | 1.67° C | 82% | - | 0 mm | - | - | - |
| 1777433126 | 1.67° C | 81% | - | 0 mm | - | - | - |
| 1777432531 | 2.22° C | 80% | - | 0 mm | - | - | - |
| 1777431925 | 2.22° C | 77% | - | 0 mm | - | - | - |
| 1777431321 | 3.33° C | 75% | - | 0 mm | - | - | - |
* Rain latest hour (hover to see other rain measurements)
** Current wind speed in m/s (hover to see current wind gust speed)